sensor_id;sensor_type;location;lat;lon;timestamp;pressure;altitude;pressure_sealevel;temperature;humidity
48796;BME280;34607;48.520;-1.330;2022-10-26T08:23:04;99970.00;;;16.01;100.00
48796;BME280;34607;48.520;-1.330;2022-10-26T08:25:33;99968.28;;;15.97;100.00
48796;BME280;34607;48.520;-1.330;2022-10-26T08:28:00;99983.09;;;15.98;100.00
48796;BME280;34607;48.520;-1.330;2022-10-26T08:30:28;99980.66;;;15.82;100.00
48796;BME280;34607;48.520;-1.330;2022-10-26T08:32:59;99981.44;;;15.90;100.00
48796;BME280;34607;48.520;-1.330;2022-10-26T08:35:27;99996.97;;;16.03;100.00
48796;BME280;34607;48.520;-1.330;2022-10-26T08:37:54;99999.41;;;16.15;100.00
48796;BME280;34607;48.520;-1.330;2022-10-26T08:40:24;99995.16;;;16.08;100.00
48796;BME280;34607;48.520;-1.330;2022-10-26T08:42:57;100008.94;;;16.19;100.00
48796;BME280;34607;48.520;-1.330;2022-10-26T08:45:29;100001.91;;;16.24;100.00
48796;BME280;34607;48.520;-1.330;2022-10-26T08:47:59;99950.84;;;16.00;100.00
48796;BME280;34607;48.520;-1.330;2022-10-26T08:50:32;99986.97;;;16.36;100.00
48796;BME280;34607;48.520;-1.330;2022-10-26T08:53:02;100003.84;;;16.74;100.00
48796;BME280;34607;48.520;-1.330;2022-10-26T08:55:41;99993.38;;;16.75;100.00
48796;BME280;34607;48.520;-1.330;2022-10-26T08:58:14;100015.94;;;16.84;100.00
48796;BME280;34607;48.520;-1.330;2022-10-26T09:00:43;100003.03;;;16.72;100.00
48796;BME280;34607;48.520;-1.330;2022-10-26T09:03:13;99999.50;;;16.74;100.00
48796;BME280;34607;48.520;-1.330;2022-10-26T09:05:48;100010.66;;;16.89;100.00
48796;BME280;34607;48.520;-1.330;2022-10-26T09:08:28;100014.22;;;16.84;100.00
48796;BME280;34607;48.520;-1.330;2022-10-26T09:11:07;100028.97;;;16.87;100.00
48796;BME280;34607;48.520;-1.330;2022-10-26T09:13:44;100035.97;;;16.87;100.00
48796;BME280;34607;48.520;-1.330;2022-10-26T09:16:23;100035.84;;;16.93;100.00
48796;BME280;34607;48.520;-1.330;2022-10-26T09:19:05;100036.63;;;17.01;100.00
48796;BME280;34607;48.520;-1.330;2022-10-26T09:21:42;100033.91;;;17.07;100.00
48796;BME280;34607;48.520;-1.330;2022-10-26T09:24:13;100038.44;;;16.96;100.00
48796;BME280;34607;48.520;-1.330;2022-10-26T09:26:54;100037.59;;;16.95;100.00
48796;BME280;34607;48.520;-1.330;2022-10-26T09:29:26;100042.00;;;16.90;100.00
48796;BME280;34607;48.520;-1.330;2022-10-26T09:31:56;100052.28;;;17.02;100.00
48796;BME280;34607;48.520;-1.330;2022-10-26T09:34:30;100054.91;;;17.02;100.00
48796;BME280;34607;48.520;-1.330;2022-10-26T09:36:58;100063.59;;;17.04;100.00
48796;BME280;34607;48.520;-1.330;2022-10-26T09:39:34;100060.19;;;16.98;100.00
48796;BME280;34607;48.520;-1.330;2022-10-26T09:42:13;100076.75;;;17.00;100.00
48796;BME280;34607;48.520;-1.330;2022-10-26T09:44:44;100079.31;;;17.01;100.00
48796;BME280;34607;48.520;-1.330;2022-10-26T09:47:19;100050.00;;;16.79;100.00
48796;BME280;34607;48.520;-1.330;2022-10-26T09:49:53;100090.78;;;16.93;100.00
48796;BME280;34607;48.520;-1.330;2022-10-26T09:52:22;100095.13;;;16.94;100.00
48796;BME280;34607;48.520;-1.330;2022-10-26T09:54:49;100102.03;;;16.99;100.00
48796;BME280;34607;48.520;-1.330;2022-10-26T09:57:18;100091.59;;;16.98;100.00
48796;BME280;34607;48.520;-1.330;2022-10-26T09:59:46;100108.06;;;17.03;100.00
48796;BME280;34607;48.520;-1.330;2022-10-26T10:02:33;100088.13;;;16.97;100.00
48796;BME280;34607;48.520;-1.330;2022-10-26T10:05:01;100097.63;;;17.01;100.00
48796;BME280;34607;48.520;-1.330;2022-10-26T10:07:28;100117.66;;;17.04;100.00
48796;BME280;34607;48.520;-1.330;2022-10-26T10:10:14;100127.28;;;17.03;100.00
48796;BME280;34607;48.520;-1.330;2022-10-26T10:12:43;100129.94;;;17.00;100.00
48796;BME280;34607;48.520;-1.330;2022-10-26T10:15:20;100134.25;;;17.03;100.00
48796;BME280;34607;48.520;-1.330;2022-10-26T10:17:48;100137.66;;;17.07;100.00
48796;BME280;34607;48.520;-1.330;2022-10-26T10:20:18;100135.91;;;17.10;100.00
48796;BME280;34607;48.520;-1.330;2022-10-26T10:22:57;100144.56;;;17.14;100.00
48796;BME280;34607;48.520;-1.330;2022-10-26T10:25:32;100149.00;;;17.10;100.00
48796;BME280;34607;48.520;-1.330;2022-10-26T10:28:02;100155.91;;;17.13;100.00
48796;BME280;34607;48.520;-1.330;2022-10-26T10:30:51;100143.63;;;17.18;100.00
48796;BME280;34607;48.520;-1.330;2022-10-26T10:33:19;100147.84;;;17.28;100.00
48796;BME280;34607;48.520;-1.330;2022-10-26T10:35:49;100148.06;;;17.14;100.00
48796;BME280;34607;48.520;-1.330;2022-10-26T10:38:19;100154.03;;;17.24;100.00
48796;BME280;34607;48.520;-1.330;2022-10-26T10:40:52;100170.41;;;17.35;100.00
48796;BME280;34607;48.520;-1.330;2022-10-26T10:43:21;100166.97;;;17.33;100.00
48796;BME280;34607;48.520;-1.330;2022-10-26T10:45:51;100172.97;;;17.40;100.00
48796;BME280;34607;48.520;-1.330;2022-10-26T10:48:20;100166.69;;;17.53;100.00
48796;BME280;34607;48.520;-1.330;2022-10-26T10:50:51;100172.56;;;17.68;100.00
48796;BME280;34607;48.520;-1.330;2022-10-26T10:53:20;100167.38;;;17.63;100.00
48796;BME280;34607;48.520;-1.330;2022-10-26T10:56:18;100189.81;;;17.81;100.00
48796;BME280;34607;48.520;-1.330;2022-10-26T10:59:00;100193.41;;;17.75;100.00
48796;BME280;34607;48.520;-1.330;2022-10-26T11:01:38;100198.63;;;17.77;100.00
48796;BME280;34607;48.520;-1.330;2022-10-26T11:04:37;100209.91;;;17.81;100.00
48796;BME280;34607;48.520;-1.330;2022-10-26T11:07:12;100189.84;;;17.79;100.00
48796;BME280;34607;48.520;-1.330;2022-10-26T11:09:42;100208.34;;;17.69;100.00
48796;BME280;34607;48.520;-1.330;2022-10-26T11:12:14;100196.25;;;17.62;100.00
48796;BME280;34607;48.520;-1.330;2022-10-26T11:14:45;100217.94;;;17.68;100.00
48796;BME280;34607;48.520;-1.330;2022-10-26T11:17:17;100220.75;;;17.54;100.00
48796;BME280;34607;48.520;-1.330;2022-10-26T11:19:50;100215.84;;;17.31;100.00
48796;BME280;34607;48.520;-1.330;2022-10-26T11:22:23;100227.34;;;17.19;100.00
48796;BME280;34607;48.520;-1.330;2022-10-26T11:24:56;100243.13;;;17.12;100.00
48796;BME280;34607;48.520;-1.330;2022-10-26T11:27:28;100232.91;;;16.93;100.00
48796;BME280;34607;48.520;-1.330;2022-10-26T11:30:02;100241.72;;;16.83;100.00
48796;BME280;34607;48.520;-1.330;2022-10-26T11:32:35;100239.22;;;16.71;100.00
48796;BME280;34607;48.520;-1.330;2022-10-26T11:35:12;100233.22;;;16.61;100.00
48796;BME280;34607;48.520;-1.330;2022-10-26T11:37:44;100247.19;;;16.57;100.00
48796;BME280;34607;48.520;-1.330;2022-10-26T11:40:23;100234.34;;;16.38;100.00
48796;BME280;34607;48.520;-1.330;2022-10-26T11:43:00;100234.22;;;16.47;100.00
48796;BME280;34607;48.520;-1.330;2022-10-26T11:45:35;100238.66;;;16.38;100.00
48796;BME280;34607;48.520;-1.330;2022-10-26T11:48:13;100248.16;;;16.48;100.00
48796;BME280;34607;48.520;-1.330;2022-10-26T11:50:43;100231.59;;;16.49;100.00
48796;BME280;34607;48.520;-1.330;2022-10-26T11:53:13;100252.56;;;16.43;100.00
48796;BME280;34607;48.520;-1.330;2022-10-26T11:55:42;100237.78;;;16.42;100.00
48796;BME280;34607;48.520;-1.330;2022-10-26T11:58:12;100229.00;;;16.47;100.00
48796;BME280;34607;48.520;-1.330;2022-10-26T12:00:44;100230.53;;;16.65;100.00
48796;BME280;34607;48.520;-1.330;2022-10-26T12:03:16;100226.19;;;16.67;100.00
48796;BME280;34607;48.520;-1.330;2022-10-26T12:05:49;100232.25;;;16.71;100.00
48796;BME280;34607;48.520;-1.330;2022-10-26T12:08:20;100223.59;;;16.66;100.00
48796;BME280;34607;48.520;-1.330;2022-10-26T12:10:54;100226.25;;;16.61;100.00
48796;BME280;34607;48.520;-1.330;2022-10-26T12:13:27;100226.09;;;16.75;100.00
48796;BME280;34607;48.520;-1.330;2022-10-26T12:16:00;100239.09;;;16.83;100.00
48796;BME280;34607;48.520;-1.330;2022-10-26T12:18:36;100240.81;;;16.87;100.00
48796;BME280;34607;48.520;-1.330;2022-10-26T12:21:05;100231.28;;;16.84;100.00
48796;BME280;34607;48.520;-1.330;2022-10-26T12:23:35;100238.22;;;16.84;100.00
48796;BME280;34607;48.520;-1.330;2022-10-26T12:32:51;100242.47;;;16.93;100.00
48796;BME280;34607;48.520;-1.330;2022-10-26T12:35:39;100234.66;;;16.91;100.00
48796;BME280;34607;48.520;-1.330;2022-10-26T12:41:21;100233.75;;;16.97;100.00
48796;BME280;34607;48.520;-1.330;2022-10-26T12:43:49;100237.97;;;17.09;100.00
48796;BME280;34607;48.520;-1.330;2022-10-26T12:46:40;100237.69;;;17.29;100.00
48796;BME280;34607;48.520;-1.330;2022-10-26T12:52:40;100223.44;;;17.51;100.00
48796;BME280;34607;48.520;-1.330;2022-10-26T12:55:46;100231.25;;;17.53;100.00
48796;BME280;34607;48.520;-1.330;2022-10-26T12:58:24;100228.81;;;17.40;100.00
48796;BME280;34607;48.520;-1.330;2022-10-26T13:01:22;100234.72;;;17.55;100.00
48796;BME280;34607;48.520;-1.330;2022-10-26T13:04:03;100230.16;;;17.69;100.00
48796;BME280;34607;48.520;-1.330;2022-10-26T13:06:57;100238.63;;;17.87;100.00
48796;BME280;34607;48.520;-1.330;2022-10-26T13:09:33;100243.66;;;18.01;100.00
48796;BME280;34607;48.520;-1.330;2022-10-26T13:12:01;100238.34;;;18.05;100.00
48796;BME280;34607;48.520;-1.330;2022-10-26T13:14:32;100208.88;;;17.92;100.00
48796;BME280;34607;48.520;-1.330;2022-10-26T13:17:02;100234.53;;;18.25;100.00
48796;BME280;34607;48.520;-1.330;2022-10-26T13:19:35;100234.47;;;18.28;100.00
48796;BME280;34607;48.520;-1.330;2022-10-26T13:22:04;100234.59;;;18.22;100.00
48796;BME280;34607;48.520;-1.330;2022-10-26T13:24:33;100210.09;;;18.23;100.00
48796;BME280;34607;48.520;-1.330;2022-10-26T13:27:26;100230.75;;;18.41;100.00
48796;BME280;34607;48.520;-1.330;2022-10-26T13:33:22;100225.94;;;18.17;100.00
48796;BME280;34607;48.520;-1.330;2022-10-26T13:35:53;100217.22;;;18.14;100.00
48796;BME280;34607;48.520;-1.330;2022-10-26T13:38:23;100240.69;;;18.24;100.00
48796;BME280;34607;48.520;-1.330;2022-10-26T13:41:01;100231.19;;;18.17;100.00
48796;BME280;34607;48.520;-1.330;2022-10-26T13:43:31;100235.25;;;18.33;100.00
48796;BME280;34607;48.520;-1.330;2022-10-26T13:45:59;100236.09;;;18.35;100.00
48796;BME280;34607;48.520;-1.330;2022-10-26T13:48:34;100230.13;;;18.28;100.00
48796;BME280;34607;48.520;-1.330;2022-10-26T13:51:09;100223.00;;;18.35;100.00
48796;BME280;34607;48.520;-1.330;2022-10-26T13:53:41;100230.72;;;18.44;100.00
48796;BME280;34607;48.520;-1.330;2022-10-26T13:56:18;100218.38;;;18.49;100.00
48796;BME280;34607;48.520;-1.330;2022-10-26T13:58:51;100211.34;;;18.51;100.00
48796;BME280;34607;48.520;-1.330;2022-10-26T14:01:21;100223.56;;;18.52;100.00
48796;BME280;34607;48.520;-1.330;2022-10-26T14:03:49;100171.69;;;18.22;100.00
48796;BME280;34607;48.520;-1.330;2022-10-26T14:06:20;100222.00;;;18.42;100.00
48796;BME280;34607;48.520;-1.330;2022-10-26T14:08:50;100221.16;;;18.40;100.00
48796;BME280;34607;48.520;-1.330;2022-10-26T14:11:21;100187.41;;;18.23;100.00
48796;BME280;34607;48.520;-1.330;2022-10-26T14:13:52;100216.88;;;18.34;100.00
48796;BME280;34607;48.520;-1.330;2022-10-26T14:16:19;100203.78;;;18.34;100.00
48796;BME280;34607;48.520;-1.330;2022-10-26T14:18:48;100216.63;;;18.48;100.00
48796;BME280;34607;48.520;-1.330;2022-10-26T14:21:17;100211.34;;;18.51;100.00
48796;BME280;34607;48.520;-1.330;2022-10-26T14:23:47;100209.59;;;18.50;100.00
48796;BME280;34607;48.520;-1.330;2022-10-26T14:26:22;100205.94;;;18.59;100.00
48796;BME280;34607;48.520;-1.330;2022-10-26T14:28:51;100190.25;;;18.58;100.00
48796;BME280;34607;48.520;-1.330;2022-10-26T14:31:23;100198.03;;;18.61;100.00
48796;BME280;34607;48.520;-1.330;2022-10-26T14:33:51;100195.28;;;18.68;100.00
48796;BME280;34607;48.520;-1.330;2022-10-26T14:36:21;100208.38;;;18.70;100.00
48796;BME280;34607;48.520;-1.330;2022-10-26T14:38:54;100202.16;;;18.74;100.00
48796;BME280;34607;48.520;-1.330;2022-10-26T14:41:25;100196.00;;;18.77;100.00
48796;BME280;34607;48.520;-1.330;2022-10-26T14:43:55;100196.97;;;18.71;100.00
48796;BME280;34607;48.520;-1.330;2022-10-26T14:46:23;100202.31;;;18.68;100.00
48796;BME280;34607;48.520;-1.330;2022-10-26T14:48:52;100201.56;;;18.61;100.00
48796;BME280;34607;48.520;-1.330;2022-10-26T14:51:25;100197.09;;;18.65;100.00
48796;BME280;34607;48.520;-1.330;2022-10-26T14:53:53;100198.78;;;18.67;100.00
48796;BME280;34607;48.520;-1.330;2022-10-26T14:56:26;100195.22;;;18.73;100.00
48796;BME280;34607;48.520;-1.330;2022-10-26T14:58:55;100180.47;;;18.64;100.00
48796;BME280;34607;48.520;-1.330;2022-10-26T15:01:31;100190.75;;;18.77;100.00
48796;BME280;34607;48.520;-1.330;2022-10-26T15:04:00;100194.22;;;18.79;100.00
48796;BME280;34607;48.520;-1.330;2022-10-26T15:06:41;100184.56;;;18.79;100.00
48796;BME280;34607;48.520;-1.330;2022-10-26T15:09:30;100176.09;;;18.66;100.00
48796;BME280;34607;48.520;-1.330;2022-10-26T15:12:00;100180.28;;;18.75;100.00
48796;BME280;34607;48.520;-1.330;2022-10-26T15:14:29;100193.34;;;18.78;100.00
48796;BME280;34607;48.520;-1.330;2022-10-26T15:16:57;100191.47;;;18.85;100.00
48796;BME280;34607;48.520;-1.330;2022-10-26T15:19:25;100203.75;;;18.84;100.00
48796;BME280;34607;48.520;-1.330;2022-10-26T15:21:53;100203.75;;;18.81;100.00
48796;BME280;34607;48.520;-1.330;2022-10-26T15:24:30;100200.22;;;18.85;100.00
48796;BME280;34607;48.520;-1.330;2022-10-26T15:27:00;100195.88;;;18.84;100.00
48796;BME280;34607;48.520;-1.330;2022-10-26T15:29:39;100179.47;;;18.73;100.00
48796;BME280;34607;48.520;-1.330;2022-10-26T15:32:25;100204.66;;;18.83;100.00
48796;BME280;34607;48.520;-1.330;2022-10-26T15:35:19;100198.44;;;18.87;100.00
48796;BME280;34607;48.520;-1.330;2022-10-26T15:37:48;100207.13;;;18.89;100.00
48796;BME280;34607;48.520;-1.330;2022-10-26T15:40:16;100206.22;;;18.92;100.00
48796;BME280;34607;48.520;-1.330;2022-10-26T15:42:48;100200.97;;;18.92;100.00
48796;BME280;34607;48.520;-1.330;2022-10-26T15:45:18;100195.84;;;18.86;100.00
48796;BME280;34607;48.520;-1.330;2022-10-26T15:47:46;100195.00;;;18.84;100.00
48796;BME280;34607;48.520;-1.330;2022-10-26T15:50:14;100203.97;;;18.72;100.00
48796;BME280;34607;48.520;-1.330;2022-10-26T15:52:42;100199.63;;;18.69;100.00
48796;BME280;34607;48.520;-1.330;2022-10-26T15:55:09;100197.09;;;18.65;100.00
48796;BME280;34607;48.520;-1.330;2022-10-26T15:57:37;100204.00;;;18.69;100.00
48796;BME280;34607;48.520;-1.330;2022-10-26T16:00:09;100176.38;;;18.52;100.00
48796;BME280;34607;48.520;-1.330;2022-10-26T16:02:41;100200.59;;;18.65;100.00
48796;BME280;34607;48.520;-1.330;2022-10-26T16:05:09;100190.19;;;18.61;100.00
48796;BME280;34607;48.520;-1.330;2022-10-26T16:07:38;100196.31;;;18.61;100.00
48796;BME280;34607;48.520;-1.330;2022-10-26T16:10:12;100192.88;;;18.58;100.00
48796;BME280;34607;48.520;-1.330;2022-10-26T16:12:41;100197.41;;;18.49;100.00
48796;BME280;34607;48.520;-1.330;2022-10-26T16:15:15;100196.50;;;18.49;100.00
48796;BME280;34607;48.520;-1.330;2022-10-26T16:17:42;100199.19;;;18.47;100.00
48796;BME280;34607;48.520;-1.330;2022-10-26T16:20:12;100181.91;;;18.37;100.00
48796;BME280;34607;48.520;-1.330;2022-10-26T16:22:40;100200.16;;;18.42;100.00
48796;BME280;34607;48.520;-1.330;2022-10-26T16:25:11;100201.09;;;18.39;100.00
48796;BME280;34607;48.520;-1.330;2022-10-26T16:27:39;100209.88;;;18.35;100.00
48796;BME280;34607;48.520;-1.330;2022-10-26T16:30:07;100208.16;;;18.34;100.00
48796;BME280;34607;48.520;-1.330;2022-10-26T16:32:35;100211.69;;;18.31;100.00
48796;BME280;34607;48.520;-1.330;2022-10-26T16:35:03;100205.78;;;18.20;100.00
48796;BME280;34607;48.520;-1.330;2022-10-26T16:37:30;100215.34;;;18.23;100.00
48796;BME280;34607;48.520;-1.330;2022-10-26T16:39:57;100217.19;;;18.18;100.00
48796;BME280;34607;48.520;-1.330;2022-10-26T16:42:24;100212.91;;;18.12;100.00
48796;BME280;34607;48.520;-1.330;2022-10-26T16:44:53;100219.00;;;18.12;100.00
48796;BME280;34607;48.520;-1.330;2022-10-26T16:47:20;100225.19;;;18.10;100.00
48796;BME280;34607;48.520;-1.330;2022-10-26T16:49:48;100224.41;;;18.03;100.00
48796;BME280;34607;48.520;-1.330;2022-10-26T16:52:15;100224.47;;;18.00;100.00
48796;BME280;34607;48.520;-1.330;2022-10-26T16:54:43;100223.69;;;17.95;100.00
48796;BME280;34607;48.520;-1.330;2022-10-26T16:57:10;100228.06;;;17.94;100.00
48796;BME280;34607;48.520;-1.330;2022-10-26T16:59:37;100229.88;;;17.91;100.00
48796;BME280;34607;48.520;-1.330;2022-10-26T17:02:04;100240.41;;;17.86;100.00
48796;BME280;34607;48.520;-1.330;2022-10-26T17:04:31;100243.88;;;17.84;100.00
48796;BME280;34607;48.520;-1.330;2022-10-26T17:06:59;100245.66;;;17.82;100.00
48796;BME280;34607;48.520;-1.330;2022-10-26T17:09:26;100245.75;;;17.77;100.00
48796;BME280;34607;48.520;-1.330;2022-10-26T17:11:53;100250.22;;;17.72;100.00
48796;BME280;34607;48.520;-1.330;2022-10-26T17:14:20;100254.56;;;17.70;100.00
48796;BME280;34607;48.520;-1.330;2022-10-26T17:16:48;100252.88;;;17.67;100.00
48796;BME280;34607;48.520;-1.330;2022-10-26T17:19:15;100250.28;;;17.64;100.00
48796;BME280;34607;48.520;-1.330;2022-10-26T17:21:42;100260.81;;;17.59;100.00
48796;BME280;34607;48.520;-1.330;2022-10-26T17:24:11;100260.00;;;17.57;100.00
48796;BME280;34607;48.520;-1.330;2022-10-26T17:26:39;100247.81;;;17.55;100.00
48796;BME280;34607;48.520;-1.330;2022-10-26T17:29:06;100251.34;;;17.51;100.00
48796;BME280;34607;48.520;-1.330;2022-10-26T17:31:33;100250.53;;;17.47;100.00
48796;BME280;34607;48.520;-1.330;2022-10-26T17:34:00;100249.72;;;17.44;100.00
48796;BME280;34607;48.520;-1.330;2022-10-26T17:36:27;100245.41;;;17.41;100.00
48796;BME280;34607;48.520;-1.330;2022-10-26T17:38:56;100254.13;;;17.40;100.00
48796;BME280;34607;48.520;-1.330;2022-10-26T17:41:26;100251.56;;;17.35;100.00
48796;BME280;34607;48.520;-1.330;2022-10-26T17:43:53;100244.66;;;17.31;100.00
48796;BME280;34607;48.520;-1.330;2022-10-26T17:46:22;100240.38;;;17.24;100.00
48796;BME280;34607;48.520;-1.330;2022-10-26T17:48:52;100247.38;;;17.22;100.00
48796;BME280;34607;48.520;-1.330;2022-10-26T17:51:20;100249.97;;;17.22;100.00
48796;BME280;34607;48.520;-1.330;2022-10-26T17:53:47;100253.50;;;17.21;100.00
48796;BME280;34607;48.520;-1.330;2022-10-26T17:56:16;100254.41;;;17.17;100.00
48796;BME280;34607;48.520;-1.330;2022-10-26T17:58:49;100247.50;;;17.13;100.00
48796;BME280;34607;48.520;-1.330;2022-10-26T18:01:17;100257.16;;;17.06;100.00
48796;BME280;34607;48.520;-1.330;2022-10-26T18:03:44;100252.84;;;17.05;100.00
48796;BME280;34607;48.520;-1.330;2022-10-26T18:06:11;100256.31;;;17.06;100.00
48796;BME280;34607;48.520;-1.330;2022-10-26T18:08:39;100258.06;;;17.03;100.00
48796;BME280;34607;48.520;-1.330;2022-10-26T18:11:10;100251.97;;;17.01;100.00
48796;BME280;34607;48.520;-1.330;2022-10-26T18:13:38;100227.75;;;16.82;100.00
48796;BME280;34607;48.520;-1.330;2022-10-26T18:16:08;100259.06;;;16.93;100.00
48796;BME280;34607;48.520;-1.330;2022-10-26T18:18:37;100260.78;;;16.93;100.00
48796;BME280;34607;48.520;-1.330;2022-10-26T18:21:06;100265.13;;;16.95;100.00
48796;BME280;34607;48.520;-1.330;2022-10-26T18:23:34;100241.69;;;16.86;100.00
48796;BME280;34607;48.520;-1.330;2022-10-26T18:26:02;100246.03;;;16.90;100.00
48796;BME280;34607;48.520;-1.330;2022-10-26T18:28:29;100252.13;;;16.89;100.00
48796;BME280;34607;48.520;-1.330;2022-10-26T18:31:01;100255.63;;;16.88;100.00
48796;BME280;34607;48.520;-1.330;2022-10-26T18:33:31;100250.47;;;16.76;100.00
48796;BME280;34607;48.520;-1.330;2022-10-26T18:36:00;100266.09;;;16.83;100.00
48796;BME280;34607;48.520;-1.330;2022-10-26T18:38:27;100259.16;;;16.81;100.00
48796;BME280;34607;48.520;-1.330;2022-10-26T18:40:54;100263.50;;;16.85;100.00
48796;BME280;34607;48.520;-1.330;2022-10-26T18:43:21;100270.50;;;16.80;100.00
48796;BME280;34607;48.520;-1.330;2022-10-26T18:45:48;100276.59;;;16.79;100.00
48796;BME280;34607;48.520;-1.330;2022-10-26T18:48:17;100271.41;;;16.76;100.00
48796;BME280;34607;48.520;-1.330;2022-10-26T18:50:46;100279.31;;;16.73;100.00
48796;BME280;34607;48.520;-1.330;2022-10-26T18:53:13;100280.16;;;16.72;100.00
48796;BME280;34607;48.520;-1.330;2022-10-26T18:55:41;100266.31;;;16.60;100.00
48796;BME280;34607;48.520;-1.330;2022-10-26T18:58:09;100281.03;;;16.74;100.00
48796;BME280;34607;48.520;-1.330;2022-10-26T19:00:39;100280.16;;;16.72;100.00
48796;BME280;34607;48.520;-1.330;2022-10-26T19:03:08;100276.69;;;16.71;100.00
48796;BME280;34607;48.520;-1.330;2022-10-26T19:05:36;100289.72;;;16.76;100.00
48796;BME280;34607;48.520;-1.330;2022-10-26T19:08:07;100255.09;;;16.54;100.00
48796;BME280;34607;48.520;-1.330;2022-10-26T19:10:34;100286.25;;;16.74;100.00
48796;BME280;34607;48.520;-1.330;2022-10-26T19:13:01;100288.00;;;16.73;100.00
48796;BME280;34607;48.520;-1.330;2022-10-26T19:15:31;100271.53;;;16.63;100.00
48796;BME280;34607;48.520;-1.330;2022-10-26T19:17:59;100288.88;;;16.71;100.00
48796;BME280;34607;48.520;-1.330;2022-10-26T19:20:28;100284.53;;;16.71;100.00
48796;BME280;34607;48.520;-1.330;2022-10-26T19:22:55;100274.97;;;16.69;100.00
48796;BME280;34607;48.520;-1.330;2022-10-26T19:25:24;100271.50;;;16.66;100.00
48796;BME280;34607;48.520;-1.330;2022-10-26T19:27:51;100274.16;;;16.63;100.00
48796;BME280;34607;48.520;-1.330;2022-10-26T19:30:20;100261.16;;;16.59;100.00
48796;BME280;34607;48.520;-1.330;2022-10-26T19:32:48;100270.72;;;16.58;100.00
48796;BME280;34607;48.520;-1.330;2022-10-26T19:35:15;100264.63;;;16.58;100.00
48796;BME280;34607;48.520;-1.330;2022-10-26T19:37:43;100254.19;;;16.53;100.00
48796;BME280;34607;48.520;-1.330;2022-10-26T19:40:10;100251.69;;;16.45;100.00
48796;BME280;34607;48.520;-1.330;2022-10-26T19:42:39;100263.00;;;16.43;100.00
48796;BME280;34607;48.520;-1.330;2022-10-26T19:45:08;100260.50;;;16.34;100.00
48796;BME280;34607;48.520;-1.330;2022-10-26T19:47:35;100262.28;;;16.27;100.00
48796;BME280;34607;48.520;-1.330;2022-10-26T19:50:03;100264.06;;;16.23;100.00
48796;BME280;34607;48.520;-1.330;2022-10-26T19:52:31;100264.94;;;16.21;100.00
48796;BME280;34607;48.520;-1.330;2022-10-26T19:54:59;100268.47;;;16.15;100.00
48796;BME280;34607;48.520;-1.330;2022-10-26T19:57:26;100259.81;;;16.08;100.00
48796;BME280;34607;48.520;-1.330;2022-10-26T19:59:55;100271.13;;;16.12;100.00
48796;BME280;34607;48.520;-1.330;2022-10-26T20:02:22;100262.44;;;16.05;100.00
48796;BME280;34607;48.520;-1.330;2022-10-26T20:04:49;100260.72;;;16.07;100.00
48796;BME280;34607;48.520;-1.330;2022-10-26T20:07:17;100267.72;;;16.02;100.00
48796;BME280;34607;48.520;-1.330;2022-10-26T20:09:45;100261.59;;;16.02;100.00
48796;BME280;34607;48.520;-1.330;2022-10-26T20:12:12;100259.91;;;15.99;100.00
48796;BME280;34607;48.520;-1.330;2022-10-26T20:14:40;100257.31;;;15.98;100.00
48796;BME280;34607;48.520;-1.330;2022-10-26T20:17:09;100256.38;;;16.02;100.00
48796;BME280;34607;48.520;-1.330;2022-10-26T20:19:36;100252.06;;;15.99;100.00
48796;BME280;34607;48.520;-1.330;2022-10-26T20:22:04;100247.72;;;15.97;100.00
48796;BME280;34607;48.520;-1.330;2022-10-26T20:24:31;100260.78;;;15.98;100.00
48796;BME280;34607;48.520;-1.330;2022-10-26T20:26:58;100252.09;;;15.95;100.00
48796;BME280;34607;48.520;-1.330;2022-10-26T20:29:26;100266.00;;;15.95;100.00
48796;BME280;34607;48.520;-1.330;2022-10-26T20:31:55;100262.53;;;15.96;100.00
